HAZ7347 ZSPD-ROAH
Flight info
| Callsign | HAZ7347 |
|---|---|
| Flight time | 1h 18m |
| Altitude | 39000 |
| Route | MIG82D MIGOL A326 APITO/N0484F410 DCT MIKES DCT AKVAS DCT MELEN/N0488F400 Y579 ONC Y525 IHEYA |
| Aircraft | A359/H-SDE2E3GHIJ3J4J5LM1ORWXY/LB1D1 |
Departure
| Time | 2026-05-06 10:03 |
|---|---|
| Airport | Shanghai Pudong International Airport (ZSPD) |
Arrival
| Time | 2026-05-06 11:22 |
|---|---|
| Airport | Naha International Airport (ROAH) |
| Time | Latitude | Longitude | Altitude | Speed | Heading |
|---|---|---|---|---|---|
| 2026-05-06 09:45 | 31.13664 | 121.81367 | 29 ft | 0 kts | 252° |
| 2026-05-06 09:53 | 31.13665 | 121.81370 | 29 ft | 3 kts | 252° |
| 2026-05-06 09:53 | 31.13673 | 121.81400 | 29 ft | 4 kts | 252° |
| 2026-05-06 09:54 | 31.13681 | 121.81426 | 27 ft | 4 kts | 253° |
| 2026-05-06 09:54 | 31.13684 | 121.81449 | 28 ft | 4 kts | 291° |
| 2026-05-06 09:54 | 31.13673 | 121.81468 | 27 ft | 4 kts | 329° |
| 2026-05-06 09:54 | 31.13649 | 121.81481 | 27 ft | 4 kts | 341° |
| 2026-05-06 09:55 | 31.13644 | 121.81483 | 28 ft | 3 kts | 342° |
| 2026-05-06 09:57 | 31.13667 | 121.81474 | 26 ft | 7 kts | 342° |
| 2026-05-06 09:58 | 31.13736 | 121.81448 | 29 ft | 14 kts | 342° |
| 2026-05-06 09:58 | 31.13852 | 121.81404 | 29 ft | 21 kts | 342° |
| 2026-05-06 09:58 | 31.14007 | 121.81345 | 29 ft | 26 kts | 342° |
| 2026-05-06 09:58 | 31.14196 | 121.81274 | 29 ft | 27 kts | 342° |
| 2026-05-06 09:59 | 31.14354 | 121.81215 | 29 ft | 22 kts | 342° |
| 2026-05-06 09:59 | 31.14454 | 121.81220 | 29 ft | 14 kts | 50° |
| 2026-05-06 09:59 | 31.14490 | 121.81332 | 29 ft | 17 kts | 72° |
| 2026-05-06 09:59 | 31.14545 | 121.81458 | 29 ft | 16 kts | 33° |
| 2026-05-06 10:00 | 31.14608 | 121.81446 | 29 ft | 9 kts | 329° |
| 2026-05-06 10:00 | 31.14680 | 121.81413 | 29 ft | 14 kts | 340° |
| 2026-05-06 10:00 | 31.14793 | 121.81369 | 29 ft | 20 kts | 342° |
| 2026-05-06 10:00 | 31.14946 | 121.81312 | 29 ft | 26 kts | 342° |
| 2026-05-06 10:01 | 31.15131 | 121.81244 | 28 ft | 28 kts | 342° |
| 2026-05-06 10:01 | 31.15334 | 121.81167 | 29 ft | 33 kts | 342° |
| 2026-05-06 10:01 | 31.15526 | 121.81094 | 28 ft | 28 kts | 342° |
| 2026-05-06 10:01 | 31.15684 | 121.81034 | 28 ft | 22 kts | 342° |
| 2026-05-06 10:02 | 31.15803 | 121.80995 | 29 ft | 12 kts | 359° |
| 2026-05-06 10:02 | 31.15852 | 121.81056 | 28 ft | 10 kts | 75° |
| 2026-05-06 10:02 | 31.15867 | 121.81160 | 28 ft | 15 kts | 102° |
| 2026-05-06 10:02 | 31.15784 | 121.81223 | 27 ft | 16 kts | 162° |
| 2026-05-06 10:03 | 31.15540 | 121.81316 | 28 ft | 71 kts | 162° |
| 2026-05-06 10:03 | 31.14840 | 121.81581 | 28 ft | 138 kts | 162° |
| 2026-05-06 10:03 | 31.13768 | 121.81981 | 270 ft | 174 kts | 160° |
| 2026-05-06 10:03 | 31.12627 | 121.82399 | 1193 ft | 168 kts | 161° |
| 2026-05-06 10:04 | 31.11602 | 121.82930 | 2213 ft | 161 kts | 151° |
| 2026-05-06 10:04 | 31.10665 | 121.83640 | 2968 ft | 162 kts | 148° |
| 2026-05-06 10:04 | 31.09735 | 121.84390 | 3586 ft | 168 kts | 147° |
| 2026-05-06 10:04 | 31.08695 | 121.85214 | 3864 ft | 196 kts | 148° |
| 2026-05-06 10:05 | 31.07475 | 121.86141 | 4186 ft | 222 kts | 148° |
| 2026-05-06 10:05 | 31.06100 | 121.87159 | 4616 ft | 244 kts | 149° |
| 2026-05-06 10:05 | 31.04619 | 121.88244 | 5237 ft | 257 kts | 149° |
| 2026-05-06 10:05 | 31.03080 | 121.89362 | 5998 ft | 264 kts | 149° |
| 2026-05-06 10:06 | 31.01503 | 121.90538 | 6730 ft | 274 kts | 147° |
| 2026-05-06 10:06 | 30.99999 | 121.91954 | 7516 ft | 281 kts | 141° |
| 2026-05-06 10:06 | 30.98526 | 121.93489 | 8372 ft | 287 kts | 140° |
| 2026-05-06 10:06 | 30.97031 | 121.95074 | 9255 ft | 293 kts | 140° |
| 2026-05-06 10:07 | 30.95510 | 121.96700 | 10098 ft | 300 kts | 138° |
| 2026-05-06 10:07 | 30.94201 | 121.98615 | 10890 ft | 308 kts | 119° |
| 2026-05-06 10:07 | 30.93602 | 122.01023 | 11618 ft | 317 kts | 94° |
| 2026-05-06 10:07 | 30.93892 | 122.03636 | 12005 ft | 337 kts | 74° |
| 2026-05-06 10:08 | 30.94636 | 122.06302 | 12374 ft | 356 kts | 70° |
| 2026-05-06 10:08 | 30.95473 | 122.09101 | 12732 ft | 374 kts | 70° |
| 2026-05-06 10:08 | 30.96333 | 122.12008 | 13232 ft | 384 kts | 70° |
| 2026-05-06 10:08 | 30.97128 | 122.14761 | 13817 ft | 390 kts | 71° |
| 2026-05-06 10:09 | 30.97985 | 122.17781 | 14399 ft | 395 kts | 71° |
| 2026-05-06 10:09 | 30.98842 | 122.20837 | 14991 ft | 399 kts | 71° |
| 2026-05-06 10:09 | 30.99646 | 122.23945 | 15578 ft | 403 kts | 76° |
| 2026-05-06 10:09 | 31.00017 | 122.27153 | 16168 ft | 407 kts | 86° |
| 2026-05-06 10:10 | 31.00064 | 122.30464 | 16766 ft | 411 kts | 90° |
| 2026-05-06 10:10 | 31.00049 | 122.33816 | 17366 ft | 415 kts | 90° |
| 2026-05-06 10:10 | 31.00030 | 122.37198 | 17935 ft | 420 kts | 90° |
| 2026-05-06 10:10 | 31.00017 | 122.40618 | 18499 ft | 424 kts | 89° |
| 2026-05-06 10:11 | 31.00012 | 122.44063 | 19011 ft | 428 kts | 89° |
| 2026-05-06 10:11 | 31.00014 | 122.46413 | 19359 ft | 431 kts | 89° |
| 2026-05-06 10:11 | 31.00019 | 122.51064 | 20052 ft | 436 kts | 89° |
| 2026-05-06 10:11 | 31.00023 | 122.53458 | 20416 ft | 439 kts | 89° |
| 2026-05-06 10:12 | 31.00027 | 122.57029 | 20956 ft | 444 kts | 89° |
| 2026-05-06 10:12 | 31.00030 | 122.60657 | 21491 ft | 448 kts | 89° |
| 2026-05-06 10:12 | 31.00033 | 122.64304 | 22016 ft | 453 kts | 89° |
| 2026-05-06 10:12 | 31.00034 | 122.67991 | 22545 ft | 457 kts | 89° |
| 2026-05-06 10:13 | 31.00035 | 122.71663 | 23077 ft | 461 kts | 89° |
| 2026-05-06 10:13 | 31.00034 | 122.75420 | 23596 ft | 466 kts | 89° |
| 2026-05-06 10:13 | 31.00032 | 122.79216 | 24044 ft | 470 kts | 89° |
| 2026-05-06 10:13 | 31.00030 | 122.83045 | 24540 ft | 474 kts | 89° |
| 2026-05-06 10:14 | 31.00025 | 122.86899 | 25049 ft | 478 kts | 89° |
| 2026-05-06 10:14 | 31.00020 | 122.90790 | 25561 ft | 481 kts | 89° |
| 2026-05-06 10:14 | 31.00012 | 122.94711 | 26070 ft | 485 kts | 89° |
| 2026-05-06 10:14 | 30.99818 | 122.98637 | 26570 ft | 490 kts | 96° |
| 2026-05-06 10:15 | 30.99097 | 123.02549 | 27064 ft | 494 kts | 107° |
| 2026-05-06 10:15 | 30.97930 | 123.06325 | 27566 ft | 497 kts | 111° |
| 2026-05-06 10:15 | 30.96645 | 123.10083 | 28049 ft | 501 kts | 112° |
| 2026-05-06 10:15 | 30.95339 | 123.13859 | 28542 ft | 505 kts | 112° |
| 2026-05-06 10:16 | 30.94028 | 123.17666 | 29019 ft | 509 kts | 112° |
| 2026-05-06 10:16 | 30.92710 | 123.21510 | 29477 ft | 512 kts | 112° |
| 2026-05-06 10:16 | 30.91387 | 123.25376 | 29917 ft | 516 kts | 112° |
| 2026-05-06 10:16 | 30.90053 | 123.29281 | 30340 ft | 520 kts | 112° |
| 2026-05-06 10:17 | 30.88734 | 123.33140 | 30742 ft | 522 kts | 112° |
| 2026-05-06 10:17 | 30.87390 | 123.37071 | 31139 ft | 524 kts | 112° |
| 2026-05-06 10:17 | 30.86035 | 123.41027 | 31522 ft | 527 kts | 112° |
| 2026-05-06 10:17 | 30.84674 | 123.45002 | 31910 ft | 529 kts | 112° |
| 2026-05-06 10:18 | 30.83310 | 123.48977 | 32259 ft | 531 kts | 112° |
| 2026-05-06 10:18 | 30.81935 | 123.52981 | 32610 ft | 534 kts | 112° |
| 2026-05-06 10:18 | 30.80550 | 123.56990 | 32951 ft | 535 kts | 113° |
| 2026-05-06 10:18 | 30.78912 | 123.60868 | 33412 ft | 533 kts | 122° |
| 2026-05-06 10:19 | 30.76777 | 123.64365 | 33914 ft | 528 kts | 133° |
| 2026-05-06 10:19 | 30.74183 | 123.67338 | 34332 ft | 522 kts | 143° |
| 2026-05-06 10:19 | 30.71219 | 123.69721 | 34687 ft | 517 kts | 154° |
| 2026-05-06 10:19 | 30.67967 | 123.71466 | 35023 ft | 512 kts | 164° |
| 2026-05-06 10:20 | 30.64562 | 123.72617 | 35391 ft | 508 kts | 169° |
| 2026-05-06 10:20 | 30.61137 | 123.73574 | 35736 ft | 507 kts | 171° |
| 2026-05-06 10:20 | 30.57691 | 123.74463 | 36059 ft | 507 kts | 171° |
| 2026-05-06 10:20 | 30.54244 | 123.75327 | 36390 ft | 507 kts | 172° |
| 2026-05-06 10:21 | 30.50810 | 123.76180 | 36737 ft | 506 kts | 172° |
| 2026-05-06 10:21 | 30.47364 | 123.77037 | 37047 ft | 506 kts | 172° |
| 2026-05-06 10:21 | 30.43916 | 123.77905 | 37361 ft | 506 kts | 172° |
| 2026-05-06 10:21 | 30.40482 | 123.78781 | 37675 ft | 506 kts | 172° |
| 2026-05-06 10:22 | 30.37043 | 123.79668 | 38007 ft | 505 kts | 172° |
| 2026-05-06 10:22 | 30.33616 | 123.80558 | 38305 ft | 505 kts | 172° |
| 2026-05-06 10:22 | 30.30179 | 123.81452 | 38586 ft | 505 kts | 172° |
| 2026-05-06 10:22 | 30.26749 | 123.82345 | 38847 ft | 505 kts | 172° |
| 2026-05-06 10:23 | 30.23318 | 123.83238 | 39107 ft | 504 kts | 172° |
| 2026-05-06 10:23 | 30.19909 | 123.84124 | 39338 ft | 504 kts | 172° |
| 2026-05-06 10:23 | 30.16478 | 123.85015 | 39559 ft | 504 kts | 172° |
| 2026-05-06 10:23 | 30.13072 | 123.85898 | 39788 ft | 504 kts | 172° |
| 2026-05-06 10:24 | 30.09642 | 123.86786 | 40027 ft | 503 kts | 172° |
| 2026-05-06 10:24 | 30.06229 | 123.87669 | 40236 ft | 503 kts | 172° |
| 2026-05-06 10:24 | 30.02812 | 123.88553 | 40438 ft | 503 kts | 172° |
| 2026-05-06 10:24 | 29.99399 | 123.89434 | 40641 ft | 503 kts | 172° |
| 2026-05-06 10:25 | 29.95989 | 123.90315 | 40858 ft | 502 kts | 173° |
| 2026-05-06 10:25 | 29.92581 | 123.91194 | 41003 ft | 503 kts | 173° |
| 2026-05-06 10:25 | 29.85797 | 123.92943 | 41024 ft | 502 kts | 173° |
| 2026-05-06 10:26 | 29.78935 | 123.94710 | 41022 ft | 502 kts | 173° |
| 2026-05-06 10:26 | 29.72207 | 123.96675 | 41019 ft | 507 kts | 166° |
| 2026-05-06 10:27 | 29.65953 | 124.00588 | 41021 ft | 521 kts | 146° |
| 2026-05-06 10:27 | 29.63314 | 124.03468 | 41021 ft | 527 kts | 134° |
| 2026-05-06 10:27 | 29.61155 | 124.06899 | 41025 ft | 532 kts | 123° |
| 2026-05-06 10:28 | 29.59576 | 124.10756 | 41021 ft | 536 kts | 111° |
| 2026-05-06 10:28 | 29.58638 | 124.14895 | 41024 ft | 538 kts | 99° |
| 2026-05-06 10:28 | 29.58299 | 124.23485 | 41026 ft | 539 kts | 90° |
| 2026-05-06 10:29 | 29.58419 | 124.32093 | 41022 ft | 540 kts | 89° |
| 2026-05-06 10:29 | 29.58549 | 124.40719 | 41024 ft | 540 kts | 89° |
| 2026-05-06 10:30 | 29.58625 | 124.49339 | 41029 ft | 540 kts | 90° |
| 2026-05-06 10:30 | 29.58666 | 124.57974 | 41031 ft | 540 kts | 90° |
| 2026-05-06 10:31 | 29.58697 | 124.66617 | 41025 ft | 541 kts | 90° |
| 2026-05-06 10:31 | 29.58723 | 124.75254 | 41031 ft | 541 kts | 90° |
| 2026-05-06 10:32 | 29.58746 | 124.83893 | 41025 ft | 541 kts | 90° |
| 2026-05-06 10:32 | 29.58764 | 124.92532 | 41028 ft | 541 kts | 90° |
| 2026-05-06 10:33 | 29.58776 | 125.01185 | 41029 ft | 542 kts | 90° |
| 2026-05-06 10:33 | 29.58780 | 125.09828 | 41035 ft | 542 kts | 90° |
| 2026-05-06 10:34 | 29.58782 | 125.18501 | 41035 ft | 542 kts | 90° |
| 2026-05-06 10:34 | 29.58778 | 125.27162 | 41036 ft | 542 kts | 91° |
| 2026-05-06 10:35 | 29.58772 | 125.35827 | 41033 ft | 543 kts | 91° |
| 2026-05-06 10:35 | 29.58760 | 125.44498 | 41040 ft | 543 kts | 91° |
| 2026-05-06 10:36 | 29.58743 | 125.53186 | 41035 ft | 544 kts | 91° |
| 2026-05-06 10:36 | 29.58719 | 125.61872 | 41036 ft | 544 kts | 91° |
| 2026-05-06 10:37 | 29.58691 | 125.70506 | 41035 ft | 545 kts | 91° |
| 2026-05-06 10:37 | 29.58676 | 125.79208 | 41037 ft | 545 kts | 91° |
| 2026-05-06 10:38 | 29.58713 | 125.87919 | 41035 ft | 546 kts | 91° |
| 2026-05-06 10:38 | 29.58764 | 125.96651 | 41038 ft | 546 kts | 91° |
| 2026-05-06 10:39 | 29.58810 | 126.05394 | 41035 ft | 547 kts | 91° |
| 2026-05-06 10:39 | 29.58845 | 126.14135 | 41039 ft | 548 kts | 91° |
| 2026-05-06 10:40 | 29.58873 | 126.22900 | 41037 ft | 549 kts | 91° |
| 2026-05-06 10:40 | 29.58884 | 126.31575 | 41030 ft | 531 kts | 88° |
| 2026-05-06 10:41 | 29.58895 | 126.39925 | 41030 ft | 516 kts | 88° |
| 2026-05-06 10:41 | 29.58909 | 126.48140 | 41033 ft | 513 kts | 88° |
| 2026-05-06 10:42 | 29.58918 | 126.56349 | 41045 ft | 513 kts | 88° |
| 2026-05-06 10:42 | 29.58920 | 126.64495 | 41038 ft | 513 kts | 88° |
| 2026-05-06 10:43 | 29.58915 | 126.72694 | 41032 ft | 513 kts | 88° |
| 2026-05-06 10:44 | 29.58899 | 126.84994 | 41031 ft | 513 kts | 88° |
| 2026-05-06 10:44 | 29.58882 | 126.93199 | 41044 ft | 513 kts | 88° |
| 2026-05-06 10:45 | 29.58859 | 127.01396 | 41032 ft | 513 kts | 89° |
| 2026-05-06 10:45 | 29.58831 | 127.09578 | 41030 ft | 513 kts | 89° |
| 2026-05-06 10:46 | 29.58798 | 127.17763 | 41028 ft | 512 kts | 89° |
| 2026-05-06 10:46 | 29.58761 | 127.25934 | 41038 ft | 512 kts | 89° |
| 2026-05-06 10:47 | 29.58718 | 127.34100 | 41039 ft | 511 kts | 89° |
| 2026-05-06 10:47 | 29.58671 | 127.42272 | 41047 ft | 511 kts | 90° |
| 2026-05-06 10:48 | 29.58194 | 127.50440 | 41043 ft | 512 kts | 96° |
| 2026-05-06 10:48 | 29.57292 | 127.58554 | 41032 ft | 512 kts | 97° |
| 2026-05-06 10:49 | 29.55665 | 127.66482 | 41032 ft | 512 kts | 112° |
| 2026-05-06 10:49 | 29.52057 | 127.73451 | 41042 ft | 507 kts | 133° |
| 2026-05-06 10:50 | 29.46622 | 127.78481 | 41047 ft | 500 kts | 154° |
| 2026-05-06 10:50 | 29.40121 | 127.80998 | 41041 ft | 491 kts | 174° |
| 2026-05-06 10:51 | 29.33359 | 127.81022 | 41041 ft | 485 kts | 186° |
| 2026-05-06 10:51 | 29.26626 | 127.80476 | 41037 ft | 485 kts | 186° |
| 2026-05-06 10:52 | 29.19939 | 127.79971 | 41033 ft | 485 kts | 186° |
| 2026-05-06 10:52 | 29.13207 | 127.79483 | 41038 ft | 485 kts | 186° |
| 2026-05-06 10:53 | 29.06475 | 127.79002 | 41033 ft | 484 kts | 186° |
| 2026-05-06 10:53 | 28.99778 | 127.78526 | 41034 ft | 484 kts | 186° |
| 2026-05-06 10:54 | 28.93027 | 127.78048 | 41032 ft | 484 kts | 186° |
| 2026-05-06 10:54 | 28.86307 | 127.77571 | 41034 ft | 484 kts | 186° |
| 2026-05-06 10:55 | 28.79584 | 127.77095 | 41032 ft | 484 kts | 186° |
| 2026-05-06 10:55 | 28.72879 | 127.76621 | 41033 ft | 484 kts | 186° |
| 2026-05-06 10:56 | 28.66158 | 127.76147 | 41035 ft | 484 kts | 186° |
| 2026-05-06 10:56 | 28.59437 | 127.75673 | 41034 ft | 483 kts | 186° |
| 2026-05-06 10:57 | 28.52720 | 127.75200 | 41031 ft | 483 kts | 186° |
| 2026-05-06 10:57 | 28.46006 | 127.74728 | 41029 ft | 484 kts | 186° |
| 2026-05-06 10:58 | 28.39287 | 127.74256 | 41031 ft | 484 kts | 186° |
| 2026-05-06 10:58 | 28.35939 | 127.74022 | 40885 ft | 481 kts | 186° |
| 2026-05-06 10:58 | 28.32594 | 127.73788 | 40262 ft | 481 kts | 186° |
| 2026-05-06 10:58 | 28.30380 | 127.73632 | 39745 ft | 484 kts | 186° |
| 2026-05-06 10:59 | 28.27003 | 127.73393 | 38957 ft | 488 kts | 186° |
| 2026-05-06 10:59 | 28.23593 | 127.73152 | 38075 ft | 492 kts | 185° |
| 2026-05-06 10:59 | 28.19059 | 127.72833 | 37027 ft | 494 kts | 186° |
| 2026-05-06 10:59 | 28.15627 | 127.72592 | 36331 ft | 494 kts | 186° |
| 2026-05-06 11:00 | 28.12200 | 127.72352 | 35640 ft | 493 kts | 186° |
| 2026-05-06 11:00 | 28.08772 | 127.72112 | 34912 ft | 494 kts | 186° |
| 2026-05-06 11:00 | 28.06453 | 127.71947 | 34395 ft | 495 kts | 186° |
| 2026-05-06 11:00 | 28.02996 | 127.71698 | 33503 ft | 499 kts | 186° |
| 2026-05-06 11:01 | 27.99528 | 127.71450 | 32611 ft | 500 kts | 186° |
| 2026-05-06 11:01 | 27.96047 | 127.71204 | 31735 ft | 502 kts | 186° |
| 2026-05-06 11:01 | 27.92560 | 127.70959 | 30830 ft | 503 kts | 186° |
| 2026-05-06 11:01 | 27.89061 | 127.70715 | 29891 ft | 504 kts | 186° |
| 2026-05-06 11:02 | 27.85562 | 127.70471 | 29014 ft | 502 kts | 186° |
| 2026-05-06 11:02 | 27.82093 | 127.70231 | 28288 ft | 497 kts | 186° |
| 2026-05-06 11:02 | 27.78664 | 127.69994 | 27592 ft | 491 kts | 186° |
| 2026-05-06 11:02 | 27.75275 | 127.69760 | 26918 ft | 486 kts | 186° |
| 2026-05-06 11:03 | 27.71960 | 127.69530 | 26261 ft | 481 kts | 186° |
| 2026-05-06 11:03 | 27.68634 | 127.69300 | 25583 ft | 477 kts | 186° |
| 2026-05-06 11:03 | 27.65333 | 127.69071 | 24920 ft | 473 kts | 186° |
| 2026-05-06 11:03 | 27.62061 | 127.68845 | 24261 ft | 469 kts | 186° |
| 2026-05-06 11:04 | 27.58814 | 127.68620 | 23605 ft | 465 kts | 186° |
| 2026-05-06 11:04 | 27.55596 | 127.68398 | 22868 ft | 461 kts | 186° |
| 2026-05-06 11:04 | 27.52418 | 127.68178 | 22211 ft | 455 kts | 186° |
| 2026-05-06 11:04 | 27.49281 | 127.67961 | 21569 ft | 449 kts | 185° |
| 2026-05-06 11:05 | 27.46181 | 127.67747 | 20917 ft | 443 kts | 185° |
| 2026-05-06 11:05 | 27.43119 | 127.67536 | 20288 ft | 438 kts | 185° |
| 2026-05-06 11:05 | 27.40097 | 127.67327 | 19654 ft | 434 kts | 185° |
| 2026-05-06 11:05 | 27.37091 | 127.67120 | 19010 ft | 430 kts | 185° |
| 2026-05-06 11:06 | 27.34110 | 127.66914 | 18370 ft | 427 kts | 185° |
| 2026-05-06 11:06 | 27.31161 | 127.66712 | 17660 ft | 423 kts | 185° |
| 2026-05-06 11:06 | 27.28239 | 127.66511 | 17001 ft | 418 kts | 185° |
| 2026-05-06 11:06 | 27.25349 | 127.66313 | 16354 ft | 413 kts | 185° |
| 2026-05-06 11:07 | 27.22498 | 127.66118 | 15717 ft | 408 kts | 185° |
| 2026-05-06 11:07 | 27.19682 | 127.65925 | 15075 ft | 404 kts | 185° |
| 2026-05-06 11:07 | 27.16892 | 127.65733 | 14433 ft | 399 kts | 185° |
| 2026-05-06 11:07 | 27.14134 | 127.65545 | 13795 ft | 395 kts | 185° |
| 2026-05-06 11:08 | 27.11411 | 127.65358 | 13087 ft | 390 kts | 186° |
| 2026-05-06 11:08 | 27.08725 | 127.65174 | 12449 ft | 383 kts | 186° |
| 2026-05-06 11:08 | 27.06088 | 127.64993 | 11831 ft | 377 kts | 186° |
| 2026-05-06 11:08 | 27.03495 | 127.64816 | 11439 ft | 365 kts | 186° |
| 2026-05-06 11:09 | 27.01023 | 127.64649 | 11322 ft | 348 kts | 186° |
| 2026-05-06 11:09 | 26.98670 | 127.64489 | 11200 ft | 331 kts | 186° |
| 2026-05-06 11:09 | 26.96451 | 127.64339 | 11081 ft | 316 kts | 186° |
| 2026-05-06 11:09 | 26.94301 | 127.64193 | 10956 ft | 302 kts | 186° |
| 2026-05-06 11:10 | 26.92246 | 127.64052 | 10829 ft | 290 kts | 186° |
| 2026-05-06 11:10 | 26.90279 | 127.63918 | 10703 ft | 278 kts | 186° |
| 2026-05-06 11:10 | 26.88382 | 127.63788 | 10539 ft | 269 kts | 187° |
| 2026-05-06 11:10 | 26.86529 | 127.63660 | 10265 ft | 265 kts | 187° |
| 2026-05-06 11:11 | 26.84698 | 127.63534 | 9979 ft | 263 kts | 187° |
| 2026-05-06 11:11 | 26.82842 | 127.63404 | 9770 ft | 268 kts | 187° |
| 2026-05-06 11:11 | 26.81007 | 127.63279 | 9510 ft | 262 kts | 187° |
| 2026-05-06 11:11 | 26.79202 | 127.63157 | 9226 ft | 258 kts | 187° |
| 2026-05-06 11:12 | 26.77428 | 127.63037 | 8945 ft | 254 kts | 187° |
| 2026-05-06 11:12 | 26.75679 | 127.62918 | 8659 ft | 250 kts | 187° |
| 2026-05-06 11:12 | 26.73957 | 127.62800 | 8384 ft | 246 kts | 187° |
| 2026-05-06 11:12 | 26.72254 | 127.62684 | 8121 ft | 243 kts | 187° |
| 2026-05-06 11:13 | 26.70574 | 127.62570 | 7847 ft | 240 kts | 187° |
| 2026-05-06 11:13 | 26.68912 | 127.62457 | 7576 ft | 238 kts | 187° |
| 2026-05-06 11:13 | 26.67272 | 127.62345 | 7316 ft | 235 kts | 187° |
| 2026-05-06 11:13 | 26.65643 | 127.62235 | 7049 ft | 233 kts | 187° |
| 2026-05-06 11:14 | 26.64034 | 127.62125 | 6788 ft | 231 kts | 187° |
| 2026-05-06 11:14 | 26.62435 | 127.62016 | 6525 ft | 230 kts | 187° |
| 2026-05-06 11:14 | 26.60842 | 127.61908 | 6259 ft | 229 kts | 187° |
| 2026-05-06 11:14 | 26.59256 | 127.61799 | 5985 ft | 228 kts | 187° |
| 2026-05-06 11:15 | 26.57673 | 127.61691 | 5712 ft | 228 kts | 187° |
| 2026-05-06 11:15 | 26.56095 | 127.61583 | 5439 ft | 227 kts | 187° |
| 2026-05-06 11:15 | 26.54524 | 127.61476 | 5169 ft | 226 kts | 186° |
| 2026-05-06 11:15 | 26.52954 | 127.61369 | 4885 ft | 225 kts | 186° |
| 2026-05-06 11:16 | 26.51389 | 127.61263 | 4602 ft | 225 kts | 186° |
| 2026-05-06 11:16 | 26.49831 | 127.61202 | 4328 ft | 225 kts | 180° |
| 2026-05-06 11:16 | 26.48272 | 127.61362 | 4063 ft | 225 kts | 176° |
| 2026-05-06 11:16 | 26.46708 | 127.61511 | 3793 ft | 225 kts | 177° |
| 2026-05-06 11:17 | 26.45146 | 127.61625 | 3512 ft | 225 kts | 178° |
| 2026-05-06 11:17 | 26.43587 | 127.61732 | 3250 ft | 224 kts | 178° |
| 2026-05-06 11:17 | 26.42031 | 127.61836 | 2979 ft | 224 kts | 178° |
| 2026-05-06 11:17 | 26.40499 | 127.61934 | 2711 ft | 224 kts | 178° |
| 2026-05-06 11:18 | 26.38919 | 127.62032 | 2436 ft | 224 kts | 178° |
| 2026-05-06 11:18 | 26.37363 | 127.62126 | 2165 ft | 223 kts | 178° |
| 2026-05-06 11:18 | 26.35820 | 127.62213 | 2002 ft | 221 kts | 179° |
| 2026-05-06 11:18 | 26.34280 | 127.62296 | 1975 ft | 222 kts | 179° |
| 2026-05-06 11:19 | 26.32773 | 127.62380 | 1976 ft | 210 kts | 178° |
| 2026-05-06 11:19 | 26.31368 | 127.62468 | 1972 ft | 195 kts | 178° |
| 2026-05-06 11:19 | 26.30042 | 127.62563 | 1941 ft | 188 kts | 177° |
| 2026-05-06 11:19 | 26.28797 | 127.62654 | 1728 ft | 178 kts | 177° |
| 2026-05-06 11:20 | 26.27588 | 127.62729 | 1418 ft | 170 kts | 178° |
| 2026-05-06 11:20 | 26.26444 | 127.62799 | 1207 ft | 160 kts | 177° |
| 2026-05-06 11:20 | 26.25366 | 127.62869 | 991 ft | 150 kts | 176° |
| 2026-05-06 11:20 | 26.24362 | 127.62935 | 808 ft | 140 kts | 175° |
| 2026-05-06 11:21 | 26.23413 | 127.62997 | 650 ft | 135 kts | 175° |
| 2026-05-06 11:21 | 26.22487 | 127.63057 | 479 ft | 132 kts | 176° |
| 2026-05-06 11:21 | 26.21579 | 127.63117 | 313 ft | 130 kts | 176° |
| 2026-05-06 11:21 | 26.20676 | 127.63210 | 143 ft | 129 kts | 178° |
| 2026-05-06 11:22 | 26.19778 | 127.63271 | 42 ft | 129 kts | 179° |
| 2026-05-06 11:22 | 26.18936 | 127.63299 | 21 ft | 109 kts | 175° |
| 2026-05-06 11:22 | 26.18415 | 127.63329 | 27 ft | 36 kts | 178° |
| 2026-05-06 11:22 | 26.18193 | 127.63341 | 28 ft | 31 kts | 178° |
| 2026-05-06 11:23 | 26.18011 | 127.63358 | 26 ft | 25 kts | 154° |
| 2026-05-06 11:23 | 26.17981 | 127.63491 | 26 ft | 17 kts | 72° |
| 2026-05-06 11:23 | 26.18067 | 127.63535 | 26 ft | 14 kts | 2° |
| 2026-05-06 11:23 | 26.18174 | 127.63535 | 26 ft | 17 kts | 360° |
| 2026-05-06 11:24 | 26.18298 | 127.63534 | 26 ft | 19 kts | 360° |
| 2026-05-06 11:24 | 26.18428 | 127.63519 | 24 ft | 19 kts | 358° |
| 2026-05-06 11:24 | 26.18565 | 127.63515 | 23 ft | 21 kts | 358° |
| 2026-05-06 11:24 | 26.18716 | 127.63507 | 23 ft | 23 kts | 356° |
| 2026-05-06 11:25 | 26.18880 | 127.63497 | 25 ft | 24 kts | 357° |
| 2026-05-06 11:25 | 26.19054 | 127.63489 | 23 ft | 26 kts | 358° |
| 2026-05-06 11:25 | 26.19237 | 127.63481 | 23 ft | 27 kts | 358° |
| 2026-05-06 11:25 | 26.19428 | 127.63472 | 24 ft | 24 kts | 357° |
| 2026-05-06 11:26 | 26.19601 | 127.63463 | 23 ft | 26 kts | 358° |
| 2026-05-06 11:26 | 26.19781 | 127.63456 | 26 ft | 22 kts | 358° |
| 2026-05-06 11:26 | 26.19901 | 127.63451 | 26 ft | 18 kts | 357° |
| 2026-05-06 11:26 | 26.20032 | 127.63442 | 24 ft | 20 kts | 356° |
| 2026-05-06 11:27 | 26.20180 | 127.63437 | 23 ft | 22 kts | 358° |
| 2026-05-06 11:27 | 26.20281 | 127.63457 | 26 ft | 9 kts | 51° |
| 2026-05-06 11:27 | 26.20303 | 127.63525 | 26 ft | 10 kts | 87° |
| 2026-05-06 11:27 | 26.20306 | 127.63612 | 27 ft | 13 kts | 88° |
| 2026-05-06 11:28 | 26.20310 | 127.63720 | 24 ft | 15 kts | 88° |
| 2026-05-06 11:28 | 26.20314 | 127.63848 | 26 ft | 18 kts | 88° |
| 2026-05-06 11:28 | 26.20320 | 127.63993 | 27 ft | 20 kts | 88° |
| 2026-05-06 11:28 | 26.20326 | 127.64153 | 24 ft | 22 kts | 88° |
| 2026-05-06 11:29 | 26.20332 | 127.64327 | 27 ft | 23 kts | 88° |
| 2026-05-06 11:29 | 26.20339 | 127.64510 | 25 ft | 24 kts | 87° |
| 2026-05-06 11:29 | 26.20380 | 127.64667 | 25 ft | 18 kts | 38° |
| 2026-05-06 11:29 | 26.20496 | 127.64737 | 26 ft | 19 kts | 23° |
| 2026-05-06 11:30 | 26.20627 | 127.64749 | 24 ft | 20 kts | 1° |
| 2026-05-06 11:30 | 26.20765 | 127.64738 | 25 ft | 21 kts | 358° |
| 2026-05-06 11:30 | 26.20912 | 127.64732 | 25 ft | 22 kts | 357° |
| 2026-05-06 11:30 | 26.21058 | 127.64750 | 25 ft | 20 kts | 0° |
| 2026-05-06 11:31 | 26.21201 | 127.64746 | 27 ft | 21 kts | 358° |
| 2026-05-06 11:31 | 26.21285 | 127.64741 | 26 ft | 12 kts | 357° |
| 2026-05-06 11:31 | 26.21338 | 127.64767 | 28 ft | 7 kts | 47° |
| 2026-05-06 11:31 | 26.21351 | 127.64814 | 28 ft | 3 kts | 105° |
| 2026-05-06 11:32 | 26.21338 | 127.64849 | 28 ft | 7 kts | 111° |
| 2026-05-06 11:32 | 26.21334 | 127.64896 | 28 ft | 0 kts | 87° |
| 2026-05-06 11:32 | 26.21334 | 127.64907 | 28 ft | 5 kts | 88° |
| 2026-05-06 11:33 | 26.21335 | 127.64927 | 28 ft | 1 kts | 88° |
| 2026-05-06 11:33 | 26.21335 | 127.64932 | 28 ft | 0 kts | 87° |